Time;durP1;ratioP1;P1;durP2;ratioP2;P2;SDS_P1;SDS_P2;PMS_P1;PMS_P2;Temp;Humidity;BMP_temperature;BMP_pressure;BME280_temperature;BME280_humidity;BME280_pressure;Samples;Min_cycle;Max_cycle;Signal;HPM_P1;HPM_P2
2022/11/04 00:01:22;;;;;;;36.00;24.87;;;23.00;88.30;;;;;;1789568;78;21148;-81
2022/11/04 00:03:53;;;;;;;34.45;24.92;;;23.00;87.90;;;;;;1829155;77;21190;-83
2022/11/04 00:06:24;;;;;;;37.35;24.90;;;23.00;87.70;;;;;;1815139;77;21592;-82
2022/11/04 00:08:57;;;;;;;32.13;24.27;;;23.00;88.30;;;;;;1828336;76;21264;-83
2022/11/04 00:14:17;;;;;;;35.75;24.15;;;23.00;86.70;;;;;;1838818;77;21125;-82
2022/11/04 00:30:57;;;;;;;31.02;22.32;;;23.10;86.00;;;;;;1827648;77;21153;-82
2022/11/04 00:33:27;;;;;;;32.03;22.20;;;23.10;85.40;;;;;;1827930;77;21163;-85
2022/11/04 00:35:58;;;;;;;29.60;21.75;;;23.10;85.30;;;;;;1836962;77;21123;-83
2022/11/04 00:38:29;;;;;;;30.85;22.90;;;23.10;84.80;;;;;;1828869;77;21162;-82
2022/11/04 00:41:00;;;;;;;31.40;20.85;;;23.20;84.80;;;;;;1831698;77;21144;-80
2022/11/04 00:43:31;;;;;;;31.93;21.27;;;23.30;84.80;;;;;;1827196;77;21186;-83
2022/11/04 00:46:02;;;;;;;32.93;22.00;;;23.30;84.50;;;;;;1830731;77;21199;-83
2022/11/04 00:48:33;;;;;;;31.95;23.05;;;23.40;84.50;;;;;;1814127;78;21591;-84
2022/11/04 00:51:04;;;;;;;28.75;22.30;;;23.50;84.50;;;;;;1805608;78;21081;-83
2022/11/04 00:53:35;;;;;;;32.05;22.07;;;23.50;84.40;;;;;;1793297;78;21159;-82
2022/11/04 00:56:07;;;;;;;32.28;23.27;;;23.50;84.70;;;;;;1789654;78;21163;-83
2022/11/04 00:58:38;;;;;;;35.08;22.65;;;23.60;84.70;;;;;;1802316;78;21152;-83
2022/11/04 01:01:16;;;;;;;32.20;22.73;;;23.60;84.60;;;;;;1782811;78;21143;-82
2022/11/04 01:03:49;;;;;;;30.37;21.85;;;23.70;84.60;;;;;;1786330;78;21147;-84
2022/11/04 01:06:22;;;;;;;30.17;22.70;;;23.70;84.50;;;;;;1734556;82;21222;-84
2022/11/04 01:09:06;;;;;;;30.48;21.23;;;23.80;84.50;;;;;;1728771;82;21200;-83
2022/11/04 01:11:35;;;;;;;30.35;20.23;;;23.90;84.30;;;;;;1794179;78;21183;-84
2022/11/04 01:14:07;;;;;;;29.45;21.97;;;23.90;83.30;;;;;;1790297;78;21218;-81
2022/11/04 01:16:39;;;;;;;27.98;20.88;;;23.90;83.40;;;;;;1790409;78;21139;-74
2022/11/04 01:19:11;;;;;;;31.30;20.75;;;24.00;83.40;;;;;;1751043;80;21132;-74
2022/11/04 01:21:42;;;;;;;31.95;22.85;;;24.00;83.60;;;;;;1790610;78;21551;-73
2022/11/04 01:24:13;;;;;;;31.15;19.60;;;24.00;83.40;;;;;;1745414;80;21262;-72
2022/11/04 01:26:44;;;;;;;28.10;21.20;;;24.10;83.60;;;;;;1786600;79;21123;-73
2022/11/04 01:29:15;;;;;;;32.03;21.42;;;24.10;82.70;;;;;;1796573;78;21259;-74
2022/11/04 01:31:47;;;;;;;29.90;21.55;;;24.20;82.90;;;;;;1748714;80;21138;-73
2022/11/04 01:34:18;;;;;;;28.65;21.40;;;24.20;82.90;;;;;;1799555;78;21148;-73
2022/11/04 01:36:49;;;;;;;30.97;21.20;;;24.20;83.30;;;;;;1793107;78;21250;-73
2022/11/04 01:39:21;;;;;;;29.60;20.43;;;24.30;83.50;;;;;;1799794;78;21108;-73
2022/11/04 01:41:53;;;;;;;32.78;20.95;;;24.40;83.40;;;;;;1790032;78;21135;-72
2022/11/04 01:44:45;;;;;;;58.50;24.75;;;24.40;83.20;;;;;;1790311;80;21159;-73
2022/11/04 01:47:21;;;;;;;28.73;20.02;;;24.50;82.70;;;;;;1790671;78;21211;-73
2022/11/04 01:49:55;;;;;;;42.25;21.40;;;24.60;81.60;;;;;;1789236;79;21230;-73
2022/11/04 01:52:28;;;;;;;28.05;19.10;;;24.60;80.90;;;;;;1800366;78;21285;-73
2022/11/04 01:55:02;;;;;;;24.35;17.40;;;24.60;80.10;;;;;;1807023;78;21613;-74
2022/11/04 01:57:39;;;;;;;29.12;20.90;;;24.70;80.20;;;;;;1794759;78;21506;-75
2022/11/04 02:00:12;;;;;;;22.35;16.60;;;24.70;79.30;;;;;;1795764;78;21270;-74
2022/11/04 02:02:48;;;;;;;24.47;17.07;;;24.80;77.60;;;;;;1759771;80;21140;-75
2022/11/04 02:05:20;;;;;;;26.87;17.13;;;24.80;78.70;;;;;;1836599;76;21619;-75
2022/11/04 02:07:53;;;;;;;23.75;16.42;;;24.90;78.30;;;;;;1847778;76;21214;-75
2022/11/04 02:10:26;;;;;;;21.57;15.50;;;25.00;77.70;;;;;;1822539;76;21172;-73
2022/11/04 02:13:00;;;;;;;24.65;17.55;;;25.00;76.30;;;;;;1812084;78;21697;-75
2022/11/04 02:15:46;;;;;;;23.02;16.75;;;25.10;76.70;;;;;;1801690;77;21607;-75
2022/11/04 02:18:28;;;;;;;23.73;15.98;;;25.10;77.00;;;;;;1820107;77;21162;-74
2022/11/04 02:21:07;;;;;;;22.73;14.85;;;25.20;75.70;;;;;;1819806;77;21608;-75
2022/11/04 02:23:59;;;;;;;19.92;15.63;;;25.20;73.50;;;;;;1817451;77;21595;-74
2022/11/04 02:26:52;;;;;;;19.27;14.70;;;25.30;74.00;;;;;;1818033;77;21139;-73
2022/11/04 02:29:42;;;;;;;20.05;15.40;;;25.30;73.60;;;;;;1815797;77;21917;-75
2022/11/04 02:32:21;;;;;;;23.22;15.28;;;25.40;73.20;;;;;;1781328;79;21187;-76
2022/11/04 02:34:57;;;;;;;22.32;15.10;;;25.50;73.70;;;;;;1826516;77;21168;-75
2022/11/04 02:37:37;;;;;;;22.87;15.50;;;25.60;74.10;;;;;;1818664;77;21792;-74
2022/11/04 02:40:13;;;;;;;20.48;16.25;;;25.60;74.60;;;;;;1814491;77;21223;-73
2022/11/04 02:43:07;;;;;;;22.23;17.17;;;25.70;74.50;;;;;;1818863;77;22018;-73
2022/11/04 02:45:51;;;;;;;23.47;16.07;;;25.80;73.30;;;;;;1819567;77;21627;-74
2022/11/04 02:48:31;;;;;;;21.60;16.50;;;25.90;74.00;;;;;;1820112;77;21792;-75
2022/11/04 02:51:07;;;;;;;23.98;16.75;;;26.00;73.00;;;;;;1823954;78;21127;-75
2022/11/04 02:53:40;;;;;;;21.55;15.55;;;26.00;73.40;;;;;;1826935;77;21198;-73
2022/11/04 02:56:14;;;;;;;23.02;16.20;;;26.10;73.90;;;;;;1824736;78;21628;-74
2022/11/04 02:58:50;;;;;;;21.52;16.30;;;26.10;73.30;;;;;;1825786;77;21138;-73
2022/11/04 03:01:23;;;;;;;19.77;15.48;;;26.10;73.40;;;;;;1833775;77;21083;-73
2022/11/04 03:04:02;;;;;;;19.87;15.53;;;26.20;73.70;;;;;;1838572;77;21150;-74
2022/11/04 03:06:35;;;;;;;20.15;16.55;;;26.30;73.30;;;;;;1825853;77;21135;-75
2022/11/04 03:09:08;;;;;;;21.95;15.93;;;26.40;72.90;;;;;;1827552;77;21630;-73
2022/11/04 03:11:41;;;;;;;23.87;15.32;;;26.40;72.70;;;;;;1833512;77;21174;-75
2022/11/04 03:14:15;;;;;;;21.60;15.95;;;26.50;72.20;;;;;;1829690;77;21209;-75
2022/11/04 03:16:49;;;;;;;20.43;15.65;;;26.60;72.00;;;;;;1826243;77;21592;-74
2022/11/04 03:19:45;;;;;;;19.80;15.08;;;26.70;72.00;;;;;;1825789;77;21170;-74
2022/11/04 03:22:19;;;;;;;23.02;15.08;;;26.80;72.00;;;;;;1825556;78;21163;-74
2022/11/04 03:24:51;;;;;;;19.98;14.75;;;26.90;69.60;;;;;;1826654;77;21186;-75
2022/11/04 03:27:24;;;;;;;18.52;14.18;;;27.00;70.30;;;;;;1824528;78;21908;-76
2022/11/04 03:30:07;;;;;;;19.27;15.13;;;27.10;68.80;;;;;;1821661;77;21560;-73
2022/11/04 03:32:46;;;;;;;17.62;13.30;;;27.20;68.60;;;;;;1827900;77;21576;-75
2022/11/04 03:35:18;;;;;;;18.17;13.88;;;27.30;67.30;;;;;;1825326;78;21218;-76
2022/11/04 03:37:49;;;;;;;16.73;12.78;;;27.40;67.00;;;;;;1825644;77;21143;-74
2022/11/04 03:40:22;;;;;;;18.27;13.88;;;27.60;66.50;;;;;;1824263;78;21203;-75
2022/11/04 03:43:11;;;;;;;21.82;14.15;;;27.80;79.20;;;;;;1827729;77;21073;-73
2022/11/04 03:45:43;;;;;;;22.32;14.25;;;27.90;75.90;;;;;;1787939;77;21245;-75
2022/11/04 03:48:14;;;;;;;17.73;13.43;;;;;;;;;;1824647;78;21217;-75
2022/11/04 03:50:47;;;;;;;21.05;13.78;;;28.30;76.20;;;;;;1814353;78;21144;-74
2022/11/04 03:53:21;;;;;;;16.55;13.40;;;28.30;73.70;;;;;;1811976;77;21140;-75
2022/11/04 03:56:04;;;;;;;18.15;13.53;;;28.40;77.20;;;;;;1813724;78;21128;-74
2022/11/04 03:58:53;;;;;;;20.82;12.80;;;28.60;77.40;;;;;;1815065;79;21199;-74
2022/11/04 04:01:26;;;;;;;17.82;12.50;;;28.60;65.60;;;;;;1816641;77;21528;-73
2022/11/04 04:03:59;;;;;;;19.05;13.18;;;28.60;61.10;;;;;;1764926;79;21244;-74
2022/11/04 04:06:33;;;;;;;15.18;12.10;;;28.60;59.70;;;;;;1809847;79;22336;-75
2022/11/04 04:09:09;;;;;;;15.53;12.00;;;28.70;60.10;;;;;;1814030;77;21234;-74
2022/11/04 04:12:09;;;;;;;16.50;12.05;;;28.80;59.80;;;;;;1807135;77;21655;-72
2022/11/04 04:14:48;;;;;;;21.45;13.00;;;28.90;58.60;;;;;;1820411;77;21639;-73
2022/11/04 04:17:34;;;;;;;17.80;12.53;;;29.00;58.50;;;;;;1815014;77;21512;-74
2022/11/04 04:20:16;;;;;;;18.85;12.25;;;29.10;58.90;;;;;;1827675;77;21126;-74
2022/11/04 04:22:56;;;;;;;14.50;11.53;;;29.20;59.30;;;;;;1817139;77;21127;-73
2022/11/04 04:28:18;;;;;;;15.53;11.28;;;29.40;58.10;;;;;;1814479;77;21172;-74
2022/11/04 04:30:50;;;;;;;12.98;11.43;;;29.50;56.80;;;;;;1819199;77;21112;-75
2022/11/04 04:33:22;;;;;;;13.80;11.05;;;29.60;56.80;;;;;;1817895;77;21162;-74
2022/11/04 04:35:57;;;;;;;14.35;10.68;;;29.60;58.30;;;;;;1810513;77;21704;-73
2022/11/04 04:47:18;;;;;;;13.90;10.45;;;29.90;72.50;;;;;;1817254;77;21684;-74
2022/11/04 04:49:53;;;;;;;15.90;10.58;;;30.00;77.20;;;;;;1817952;77;21163;-75
2022/11/04 04:52:26;;;;;;;15.63;10.20;;;29.90;61.50;;;;;;1825504;78;21144;-75
2022/11/04 04:54:57;;;;;;;14.58;10.08;;;30.00;72.20;;;;;;1824101;78;21191;-74
2022/11/04 04:57:28;;;;;;;16.48;10.13;;;30.00;56.00;;;;;;1832492;77;22286;-75
2022/11/04 04:59:59;;;;;;;18.00;10.20;;;30.10;54.30;;;;;;1824698;77;21194;-75
2022/11/04 05:02:30;;;;;;;14.68;9.40;;;30.10;53.70;;;;;;1827065;77;21185;-75
2022/11/04 05:05:01;;;;;;;13.00;9.08;;;30.10;52.80;;;;;;1827684;77;21622;-75
2022/11/04 05:07:33;;;;;;;12.75;9.65;;;30.20;53.60;;;;;;1825118;77;21177;-75
2022/11/04 05:10:04;;;;;;;14.40;9.60;;;30.10;53.90;;;;;;1826883;78;21158;-74
2022/11/04 05:15:30;;;;;;;13.00;9.48;;;30.20;54.20;;;;;;1839566;77;21304;-74
2022/11/04 05:18:02;;;;;;;12.82;9.90;;;30.20;53.50;;;;;;1824808;78;21167;-77
2022/11/04 05:20:33;;;;;;;15.08;10.10;;;30.30;53.10;;;;;;1824995;78;21159;-76
2022/11/04 05:23:04;;;;;;;12.05;9.68;;;30.20;52.50;;;;;;1824349;78;21171;-75
2022/11/04 05:25:35;;;;;;;14.58;9.93;;;30.30;52.90;;;;;;1825032;77;21633;-73
2022/11/04 05:28:06;;;;;;;13.85;9.50;;;30.30;53.10;;;;;;1820986;78;21135;-75
2022/11/04 05:30:38;;;;;;;14.68;10.35;;;30.30;52.90;;;;;;1824502;78;21248;-75
2022/11/04 05:33:09;;;;;;;16.17;9.85;;;30.30;53.10;;;;;;1824637;77;21224;-75
2022/11/04 05:35:41;;;;;;;13.10;9.35;;;30.30;53.80;;;;;;1825394;78;21217;-73
2022/11/04 05:38:12;;;;;;;13.83;9.30;;;30.20;53.20;;;;;;1824488;78;21124;-73
2022/11/04 05:40:45;;;;;;;14.65;9.68;;;30.20;53.70;;;;;;1819211;78;21131;-74
2022/11/04 05:43:20;;;;;;;15.20;9.80;;;30.20;53.60;;;;;;1828418;77;21252;-72
2022/11/04 05:45:51;;;;;;;13.95;9.90;;;30.30;54.10;;;;;;1827422;77;21080;-73
2022/11/04 05:48:23;;;;;;;14.73;9.70;;;30.40;53.60;;;;;;1824465;78;21139;-73
2022/11/04 05:51:04;;;;;;;17.40;9.83;;;30.40;53.80;;;;;;1818668;77;21088;-74
2022/11/04 05:53:35;;;;;;;16.73;10.13;;;30.50;52.70;;;;;;1821080;77;21128;-75
2022/11/04 05:56:06;;;;;;;12.85;9.10;;;30.50;53.60;;;;;;1814552;77;21101;-74
2022/11/04 05:58:38;;;;;;;11.90;9.78;;;30.50;53.20;;;;;;1808059;79;21138;-73
2022/11/04 06:01:30;;;;;;;15.25;10.38;;;30.50;52.90;;;;;;1814497;79;21160;-74
2022/11/04 06:04:02;;;;;;;12.50;9.60;;;30.60;53.50;;;;;;1817422;77;21132;-74
2022/11/04 06:06:35;;;;;;;12.82;9.53;;;30.60;53.00;;;;;;1819531;77;21726;-75
2022/11/04 06:09:06;;;;;;;12.53;9.68;;;30.70;54.50;;;;;;1812270;79;21654;-74
2022/11/04 06:11:39;;;;;;;12.93;10.13;;;30.70;53.10;;;;;;1821994;77;21175;-75
2022/11/04 06:14:10;;;;;;;11.90;9.15;;;30.70;53.70;;;;;;1805549;79;21124;-76
2022/11/04 06:16:42;;;;;;;12.85;10.00;;;30.70;53.10;;;;;;1804569;77;21163;-75
2022/11/04 06:19:13;;;;;;;17.15;9.00;;;30.70;52.80;;;;;;1817618;78;21230;-76
2022/11/04 06:21:45;;;;;;;14.63;8.88;;;30.80;52.80;;;;;;1821347;77;21173;-77
2022/11/04 06:24:16;;;;;;;14.15;9.53;;;30.80;52.50;;;;;;1817201;77;21085;-76
2022/11/04 06:26:47;;;;;;;13.83;9.38;;;30.80;52.40;;;;;;1813981;77;21092;-76
2022/11/04 06:29:18;;;;;;;13.55;9.13;;;30.80;53.30;;;;;;1814451;79;21582;-76
2022/11/04 06:31:49;;;;;;;13.32;9.60;;;30.80;52.60;;;;;;1815714;77;21108;-77
2022/11/04 06:34:20;;;;;;;13.13;10.05;;;30.80;52.30;;;;;;1814736;78;21142;-75
2022/11/04 06:36:51;;;;;;;13.85;9.50;;;30.80;52.40;;;;;;1816243;78;21115;-75
2022/11/04 06:39:22;;;;;;;14.33;9.20;;;30.80;52.40;;;;;;1815367;77;21115;-76
2022/11/04 06:41:53;;;;;;;13.18;9.65;;;30.80;52.20;;;;;;1817332;77;21147;-76
2022/11/04 06:44:25;;;;;;;14.03;10.48;;;30.90;52.50;;;;;;1815276;77;21188;-76
2022/11/04 06:46:56;;;;;;;10.48;8.58;;;30.80;51.70;;;;;;1816473;77;21203;-76
2022/11/04 06:49:27;;;;;;;12.93;9.15;;;30.90;51.70;;;;;;1814330;77;21139;-74
2022/11/04 06:52:01;;;;;;;12.88;8.78;;;30.80;51.50;;;;;;1807307;78;21171;-76
2022/11/04 06:54:31;;;;;;;13.72;9.63;;;30.80;52.20;;;;;;1804935;79;21820;-76
2022/11/04 06:57:02;;;;;;;11.50;8.93;;;30.80;51.80;;;;;;1814080;79;21639;-75
2022/11/04 06:59:33;;;;;;;16.00;8.80;;;30.80;51.70;;;;;;1818046;77;21085;-74
2022/11/04 07:02:04;;;;;;;11.65;9.30;;;30.80;52.00;;;;;;1764575;81;21221;-74
2022/11/04 07:04:38;;;;;;;13.32;9.75;;;30.80;52.00;;;;;;1812222;77;21092;-76
2022/11/04 07:07:09;;;;;;;20.72;12.00;;;30.80;52.10;;;;;;1813805;79;21179;-76
2022/11/04 07:09:40;;;;;;;15.83;11.50;;;30.80;52.10;;;;;;1804835;79;21168;-75
2022/11/04 07:12:12;;;;;;;17.45;11.73;;;30.80;51.90;;;;;;1812311;79;21140;-74
2022/11/04 07:14:43;;;;;;;14.93;10.82;;;30.70;52.50;;;;;;1808595;79;21164;-73
2022/11/04 07:17:14;;;;;;;16.75;11.38;;;30.70;52.70;;;;;;1816508;77;21147;-75
2022/11/04 07:20:06;;;;;;;20.70;10.28;;;30.70;52.70;;;;;;1813784;79;22406;-76
2022/11/04 07:22:36;;;;;;;12.53;10.45;;;30.70;52.50;;;;;;1827665;78;21132;-77
2022/11/04 07:25:08;;;;;;;15.20;9.98;;;30.60;52.10;;;;;;1835007;78;21151;-76
2022/11/04 07:27:40;;;;;;;15.83;10.03;;;30.70;52.30;;;;;;1824980;78;21080;-77
2022/11/04 07:30:11;;;;;;;14.90;10.55;;;30.60;52.50;;;;;;1828689;77;21189;-77
2022/11/04 07:32:42;;;;;;;12.00;10.55;;;30.60;52.70;;;;;;1823762;78;21175;-76
2022/11/04 07:35:13;;;;;;;15.08;10.23;;;30.60;53.00;;;;;;1835204;78;21155;-75
2022/11/04 07:37:44;;;;;;;14.20;10.40;;;30.60;52.80;;;;;;1840168;77;21134;-76
2022/11/04 07:40:17;;;;;;;11.43;9.45;;;30.60;52.90;;;;;;1839680;77;21155;-76
2022/11/04 07:42:48;;;;;;;15.20;9.73;;;30.50;53.20;;;;;;1840704;77;21701;-74
2022/11/04 07:45:19;;;;;;;12.98;9.45;;;30.60;52.50;;;;;;1832184;78;21216;-75
2022/11/04 07:47:58;;;;;;;11.63;8.70;;;30.60;52.40;;;;;;1800556;79;21099;-76
2022/11/04 07:50:29;;;;;;;12.35;9.25;;;30.60;52.10;;;;;;1839311;78;21075;-75
2022/11/04 07:53:01;;;;;;;11.80;9.48;;;30.60;52.50;;;;;;1839720;77;21207;-75
2022/11/04 07:55:36;;;;;;;13.43;9.98;;;30.60;52.70;;;;;;1830060;78;21171;-75
2022/11/04 07:58:08;;;;;;;;;;;30.60;52.10;;;;;;1832627;78;21099;-76
2022/11/04 08:01:04;;;;;;;10.20;8.80;;;30.60;52.00;;;;;;1842355;78;20212;-76
2022/11/04 08:03:36;;;;;;;13.75;9.28;;;30.60;52.60;;;;;;1844626;77;21169;-75
2022/11/04 08:06:09;;;;;;;10.48;9.15;;;30.50;52.40;;;;;;1808589;79;21095;-76
2022/11/04 08:08:42;;;;;;;15.68;10.00;;;30.50;52.60;;;;;;1846067;78;21151;-76
2022/11/04 08:11:22;;;;;;;13.98;9.78;;;30.50;52.70;;;;;;1842845;77;21080;-74
2022/11/04 08:13:51;;;;;;;12.10;9.08;;;30.50;52.80;;;;;;1847041;77;21238;-76
2022/11/04 08:16:23;;;;;;;10.40;8.63;;;30.50;52.70;;;;;;1846397;77;21595;-75
2022/11/04 08:19:00;;;;;;;11.12;9.98;;;30.50;52.90;;;;;;1847813;77;21144;-76
2022/11/04 08:21:31;;;;;;;10.85;8.88;;;30.40;52.60;;;;;;1807432;79;21173;-76
2022/11/04 08:24:02;;;;;;;11.10;9.03;;;30.40;52.40;;;;;;1784763;80;21061;-75
2022/11/04 08:26:33;;;;;;;12.30;9.78;;;30.40;52.80;;;;;;1800887;79;21705;-74
2022/11/04 08:29:07;;;;;;;15.32;9.30;;;30.40;52.90;;;;;;1845650;76;21131;-74
2022/11/04 08:31:38;;;;;;;12.45;9.20;;;30.40;53.20;;;;;;1806866;79;21517;-74
2022/11/04 08:34:10;;;;;;;15.30;9.43;;;30.50;52.90;;;;;;1852415;76;21713;-74
2022/11/04 08:36:41;;;;;;;14.00;9.08;;;30.50;52.90;;;;;;1850479;77;21076;-73
2022/11/04 08:39:13;;;;;;;11.63;8.98;;;30.40;53.10;;;;;;1832438;77;21610;-75
2022/11/04 08:41:46;;;;;;;10.75;9.10;;;30.40;53.10;;;;;;1810438;79;21614;-74
2022/11/04 08:44:18;;;;;;;11.22;8.50;;;30.40;53.20;;;;;;1847623;76;21215;-76
2022/11/04 08:49:41;;;;;;;11.57;8.68;;;30.40;53.10;;;;;;1840197;76;21674;-75
2022/11/04 08:52:13;;;;;;;11.57;9.15;;;30.40;52.90;;;;;;1844094;76;21087;-75
2022/11/04 08:54:45;;;;;;;13.22;9.08;;;30.40;53.30;;;;;;1801381;78;21598;-76
2022/11/04 08:57:16;;;;;;;10.58;8.73;;;30.40;53.10;;;;;;1831251;76;21131;-76
2022/11/04 08:59:47;;;;;;;12.82;8.45;;;30.30;53.60;;;;;;1842980;77;21667;-77
2022/11/04 09:02:18;;;;;;;10.72;8.50;;;30.30;52.90;;;;;;1844457;76;21108;-76
2022/11/04 09:04:49;;;;;;;13.45;9.03;;;30.20;53.00;;;;;;1844060;77;21147;-76
2022/11/04 09:07:24;;;;;;;12.70;9.15;;;30.20;53.60;;;;;;1842570;76;21626;-76
2022/11/04 09:09:55;;;;;;;12.07;9.18;;;30.20;53.50;;;;;;1814466;78;21590;-75
2022/11/04 09:12:26;;;;;;;11.95;9.10;;;30.20;53.30;;;;;;1843460;78;21148;-75
2022/11/04 09:14:57;;;;;;;14.05;9.70;;;30.20;53.20;;;;;;1805878;79;21130;-75
2022/11/04 09:17:31;;;;;;;11.73;9.33;;;30.10;53.10;;;;;;1838516;78;21136;-76
2022/11/04 09:20:02;;;;;;;10.10;8.45;;;30.10;53.80;;;;;;1840169;77;21214;-76
2022/11/04 09:22:35;;;;;;;11.08;8.58;;;30.00;53.50;;;;;;1843514;76;21579;-75
2022/11/04 09:25:10;;;;;;;13.60;9.65;;;30.00;53.70;;;;;;1831927;78;21150;-75
2022/11/04 09:27:41;;;;;;;11.15;8.83;;;30.00;53.90;;;;;;1844057;78;21057;-76
2022/11/04 09:30:13;;;;;;;13.22;9.45;;;29.90;54.10;;;;;;1844599;78;21178;-75
2022/11/04 09:32:44;;;;;;;11.00;9.08;;;29.90;54.50;;;;;;1840257;78;21646;-76
2022/11/04 09:35:17;;;;;;;14.63;9.18;;;29.90;54.70;;;;;;1839689;77;21182;-76
2022/11/04 09:37:49;;;;;;;12.53;8.98;;;29.80;54.40;;;;;;1844089;78;21083;-75
2022/11/04 09:40:23;;;;;;;12.63;9.10;;;29.80;54.70;;;;;;1841296;78;21147;-75
2022/11/04 09:43:31;;;;;;;11.35;9.25;;;29.80;54.80;;;;;;1805667;79;21126;-76
2022/11/04 09:46:04;;;;;;;11.08;9.00;;;29.70;54.60;;;;;;1845005;76;21140;-76
2022/11/04 09:48:46;;;;;;;11.22;8.98;;;29.60;55.10;;;;;;1834380;76;21173;-76
2022/11/04 09:51:19;;;;;;;12.90;9.00;;;29.60;55.30;;;;;;1819380;78;21080;-75
2022/11/04 09:53:57;;;;;;;11.12;8.68;;;29.60;55.40;;;;;;1844342;78;21145;-76
2022/11/04 09:56:37;;;;;;;10.98;8.98;;;29.50;55.10;;;;;;1794176;79;21143;-76
2022/11/04 09:59:11;;;;;;;11.97;8.95;;;29.50;55.50;;;;;;1807585;79;21130;-76
2022/11/04 10:02:17;;;;;;;11.80;9.90;;;29.40;55.70;;;;;;1834963;78;21171;-77
2022/11/04 10:04:51;;;;;;;14.60;9.30;;;29.40;55.70;;;;;;1804301;79;21122;-76
2022/11/04 10:07:37;;;;;;;13.05;9.30;;;29.40;55.60;;;;;;1821615;77;21150;-76
2022/11/04 10:10:16;;;;;;;12.95;9.33;;;29.40;55.90;;;;;;1783870;79;21137;-76
2022/11/04 10:13:00;;;;;;;10.70;8.70;;;29.40;56.20;;;;;;1840819;77;21256;-76
2022/11/04 10:15:47;;;;;;;12.98;9.73;;;29.30;56.30;;;;;;1843063;77;21659;-76
2022/11/04 10:18:42;;;;;;;13.25;9.78;;;29.30;56.50;;;;;;1844535;78;21590;-75
2022/11/04 10:21:22;;;;;;;13.28;10.00;;;29.20;56.60;;;;;;1806716;79;21649;-77
2022/11/04 10:24:05;;;;;;;15.48;9.33;;;29.20;56.60;;;;;;1825311;78;21848;-75
2022/11/04 10:26:44;;;;;;;15.08;9.58;;;29.20;56.70;;;;;;1838588;77;21171;-76
2022/11/04 10:29:18;;;;;;;12.70;9.88;;;29.20;56.90;;;;;;1840099;77;21548;-76
2022/11/04 10:31:51;;;;;;;14.13;9.48;;;29.10;57.10;;;;;;1807416;79;21150;-76
2022/11/04 10:34:33;;;;;;;19.82;11.03;;;29.10;57.10;;;;;;1850103;77;21620;-77
2022/11/04 10:37:06;;;;;;;15.35;10.10;;;29.10;57.30;;;;;;1842158;77;21564;-77
2022/11/04 10:39:39;;;;;;;15.83;10.45;;;29.00;57.30;;;;;;1843315;77;21508;-77
2022/11/04 10:42:13;;;;;;;15.75;11.48;;;29.00;57.50;;;;;;1839491;78;21597;-76
2022/11/04 10:44:45;;;;;;;19.05;11.83;;;29.00;57.70;;;;;;1856114;77;21167;-75
2022/11/04 10:47:46;;;;;;;16.48;11.25;;;28.90;57.90;;;;;;1833724;78;21060;-75
2022/11/04 10:50:22;;;;;;;20.20;12.25;;;28.90;58.10;;;;;;1839360;77;21155;-77
2022/11/04 10:53:06;;;;;;;41.08;26.80;;;28.90;58.50;;;;;;1839251;78;21197;-75
2022/11/04 10:55:43;;;;;;;28.38;18.73;;;28.80;58.40;;;;;;1843939;77;21092;-76
2022/11/04 10:58:16;;;;;;;22.65;15.03;;;28.80;58.60;;;;;;1844468;78;21135;-76
2022/11/04 11:00:48;;;;;;;18.90;13.90;;;28.80;58.70;;;;;;1841706;78;21209;-75
2022/11/04 11:03:30;;;;;;;21.68;12.65;;;28.70;58.80;;;;;;1853905;77;21264;-75
2022/11/04 11:06:16;;;;;;;22.70;13.35;;;28.70;59.00;;;;;;1854281;76;21578;-77
2022/11/04 11:08:47;;;;;;;17.73;13.22;;;28.70;59.20;;;;;;1844767;78;21578;-77
2022/11/04 11:11:21;;;;;;;20.43;13.83;;;28.70;59.40;;;;;;1843999;78;21069;-77
2022/11/04 11:13:52;;;;;;;22.62;13.48;;;28.60;59.60;;;;;;1840097;77;21155;-77
2022/11/04 11:16:27;;;;;;;17.17;12.63;;;28.70;59.90;;;;;;1843503;78;21111;-77
2022/11/04 11:19:21;;;;;;;21.05;14.03;;;28.60;60.10;;;;;;1844381;78;21163;-76
2022/11/04 11:21:57;;;;;;;22.07;14.23;;;28.60;60.00;;;;;;1840841;78;21179;-76
2022/11/04 11:24:33;;;;;;;22.80;13.65;;;28.60;60.30;;;;;;1844809;78;21139;-77
2022/11/04 11:27:10;;;;;;;23.07;13.50;;;28.60;60.40;;;;;;1841964;78;21669;-76
2022/11/04 11:29:41;;;;;;;17.40;12.93;;;28.50;60.50;;;;;;1833092;77;21592;-75
2022/11/04 11:32:21;;;;;;;20.02;13.65;;;28.50;60.60;;;;;;1845988;77;21091;-76
2022/11/04 11:34:53;;;;;;;20.85;13.08;;;28.50;60.80;;;;;;1840652;77;21732;-77
2022/11/04 11:37:25;;;;;;;19.50;13.32;;;28.50;60.80;;;;;;1845864;77;21165;-77
2022/11/04 11:39:57;;;;;;;19.35;13.18;;;28.40;61.10;;;;;;1849895;77;21839;-76
2022/11/04 11:42:28;;;;;;;19.45;14.05;;;28.40;61.50;;;;;;1836827;77;21249;-76
2022/11/04 11:45:03;;;;;;;25.82;14.23;;;28.30;61.60;;;;;;1841775;78;21214;-75
2022/11/04 11:47:41;;;;;;;18.25;12.78;;;28.30;61.70;;;;;;1844752;77;21657;-76
2022/11/04 11:50:18;;;;;;;18.73;13.22;;;28.30;61.80;;;;;;1844821;77;21190;-76
2022/11/04 11:52:51;;;;;;;21.17;14.13;;;28.30;61.90;;;;;;1833902;78;21163;-76
2022/11/04 11:55:30;;;;;;;24.12;15.03;;;28.30;62.00;;;;;;1843549;78;21580;-76
2022/11/04 11:58:09;;;;;;;22.70;14.50;;;28.30;62.30;;;;;;1844727;78;21095;-75
2022/11/04 12:01:00;;;;;;;20.57;13.40;;;28.30;62.30;;;;;;1835837;78;21138;-75
2022/11/04 12:03:39;;;;;;;18.32;13.40;;;28.20;62.20;;;;;;1832532;77;21443;-77
2022/11/04 12:06:30;;;;;;;19.75;14.18;;;28.20;62.20;;;;;;1838509;76;21135;-76
2022/11/04 12:09:41;;;;;;;20.90;13.65;;;28.20;62.30;;;;;;1838264;77;21080;-76
2022/11/04 12:12:42;;;;;;;22.00;14.85;;;28.20;62.40;;;;;;1839800;77;21072;-77
2022/11/04 12:15:17;;;;;;;21.37;14.80;;;28.20;62.30;;;;;;1838132;77;21169;-75
2022/11/04 12:18:32;;;;;;;25.12;17.05;;;28.20;62.60;;;;;;1844221;77;21662;-76
2022/11/04 12:21:17;;;;;;;24.20;17.77;;;28.20;63.10;;;;;;1834375;77;21621;-75
2022/11/04 12:24:05;;;;;;;26.73;18.73;;;28.20;63.20;;;;;;1843770;77;21218;-76
2022/11/04 12:27:07;;;;;;;25.70;17.92;;;28.20;63.40;;;;;;1845133;77;21076;-75
2022/11/04 12:30:02;;;;;;;21.42;16.32;;;28.20;63.70;;;;;;1844220;78;21166;-76
2022/11/04 12:32:50;;;;;;;25.92;17.02;;;28.20;63.80;;;;;;1831392;78;21112;-76
2022/11/04 12:35:39;;;;;;;25.97;17.05;;;28.20;64.10;;;;;;1842242;77;21144;-76
2022/11/04 12:38:43;;;;;;;29.40;18.67;;;28.20;64.20;;;;;;1844317;77;21157;-76
2022/11/04 12:41:36;;;;;;;27.67;18.90;;;28.10;64.70;;;;;;1834607;77;21178;-76
2022/11/04 12:44:34;;;;;;;28.47;19.02;;;28.10;65.10;;;;;;1807066;78;21228;-75
2022/11/04 12:47:22;;;;;;;24.87;18.07;;;28.10;65.40;;;;;;1832921;78;21201;-76
2022/11/04 12:50:25;;;;;;;22.58;16.60;;;28.10;65.70;;;;;;1842874;76;21291;-77
2022/11/04 12:53:17;;;;;;;26.25;18.60;;;28.10;66.00;;;;;;1835323;77;21116;-76
2022/11/04 12:56:13;;;;;;;22.80;17.87;;;28.00;66.70;;;;;;1836707;77;21219;-77
2022/11/04 12:59:05;;;;;;;25.02;17.60;;;28.10;66.80;;;;;;1833847;77;21584;-76
2022/11/04 13:01:47;;;;;;;28.45;20.30;;;28.00;66.80;;;;;;1830865;77;22227;-77
2022/11/04 13:04:24;;;;;;;30.50;20.57;;;28.00;67.00;;;;;;1830792;78;21061;-78
2022/11/04 13:07:00;;;;;;;26.35;20.20;;;28.00;67.40;;;;;;1823868;78;21135;-78
2022/11/04 13:09:49;;;;;;;26.42;17.57;;;28.00;67.60;;;;;;1838778;76;21177;-77
2022/11/04 13:12:22;;;;;;;26.07;19.02;;;27.90;67.50;;;;;;1835978;76;21084;-77
2022/11/04 13:14:56;;;;;;;25.05;19.10;;;27.90;67.80;;;;;;1838935;76;21233;-78
2022/11/04 13:17:39;;;;;;;25.05;19.75;;;28.00;68.30;;;;;;1835917;76;21139;-77
2022/11/04 13:20:16;;;;;;;24.05;18.07;;;27.90;68.10;;;;;;1839666;76;21143;-77
2022/11/04 13:22:49;;;;;;;30.85;19.48;;;27.90;69.50;;;;;;1834679;77;21221;-77
2022/11/04 13:25:35;;;;;;;29.80;19.00;;;27.80;69.80;;;;;;1833264;78;21226;-76
2022/11/04 13:28:12;;;;;;;29.40;19.40;;;27.70;70.00;;;;;;1838491;78;21132;-76
2022/11/04 13:30:59;;;;;;;;;;;27.70;70.40;;;;;;1842501;77;21469;-76
2022/11/04 13:33:47;;;;;;;31.10;21.45;;;27.70;69.60;;;;;;1837995;77;20212;-78
2022/11/04 13:36:39;;;;;;;30.15;19.45;;;27.70;70.70;;;;;;1834241;78;21111;-77
2022/11/04 13:39:21;;;;;;;27.50;17.80;;;27.60;70.70;;;;;;1830117;78;21750;-77
2022/11/04 13:42:28;;;;;;;27.82;19.10;;;27.60;71.40;;;;;;1834942;78;21128;-77
2022/11/04 13:44:51;;;;;;;27.60;19.57;;;27.60;71.70;;;;;;1789562;79;21138;-76
2022/11/04 13:47:27;;;;;;;30.82;20.65;;;27.50;72.30;;;;;;1829007;77;21111;-77
2022/11/04 13:49:58;;;;;;;38.50;20.57;;;27.40;72.40;;;;;;1838317;76;21143;-77
2022/11/04 13:52:37;;;;;;;27.87;20.17;;;27.30;72.50;;;;;;1835384;78;21228;-77